createdAt,value
2023-06-10T00:00:14.144Z,99928.34
2023-06-10T00:01:05.738Z,99929.97
2023-06-10T00:02:01.005Z,99921.97
2023-06-10T00:02:52.245Z,99921.94
2023-06-10T00:03:44.476Z,99933.78
2023-06-10T00:04:37.312Z,99930.69
2023-06-10T00:05:31.149Z,99927.75
2023-06-10T00:06:25.728Z,99925.22
2023-06-10T00:07:16.670Z,99920.50
2023-06-10T00:08:11.735Z,99927.53
2023-06-10T00:09:06.336Z,99929.34
2023-06-10T00:09:58.384Z,99928.44
2023-06-10T00:10:49.029Z,99930.00
2023-06-10T00:11:40.373Z,99934.28
2023-06-10T00:12:32.285Z,99935.31
2023-06-10T00:13:22.900Z,99932.53
2023-06-10T00:14:13.707Z,99934.16
2023-06-10T00:15:06.595Z,99934.50
2023-06-10T00:15:57.602Z,99947.09
2023-06-10T00:16:48.286Z,99937.22
2023-06-10T00:17:40.924Z,99942.28
2023-06-10T00:18:32.353Z,99933.72
2023-06-10T00:19:26.664Z,99941.84
2023-06-10T00:20:17.610Z,99943.00
2023-06-10T00:21:08.528Z,99937.66
2023-06-10T00:21:59.352Z,99939.69
2023-06-10T00:22:50.769Z,99938.84
2023-06-10T00:23:42.261Z,99940.34
2023-06-10T00:24:32.986Z,99943.53
2023-06-10T00:25:23.890Z,99945.31
2023-06-10T00:26:15.041Z,99942.59
2023-06-10T00:27:08.293Z,99942.78
2023-06-10T00:28:01.472Z,99942.13
2023-06-10T00:28:53.629Z,99941.97
2023-06-10T00:29:48.275Z,99944.41
2023-06-10T00:30:39.448Z,99956.50
2023-06-10T00:31:31.523Z,99952.28
2023-06-10T00:32:22.191Z,99950.19
2023-06-10T00:33:12.846Z,99949.38
2023-06-10T00:34:03.753Z,99950.00
2023-06-10T00:34:56.203Z,99942.66
2023-06-10T00:35:47.242Z,99941.88
2023-06-10T00:36:38.310Z,99937.88
2023-06-10T00:37:30.278Z,99944.59
2023-06-10T00:38:21.483Z,99937.34
2023-06-10T00:39:12.310Z,99944.88
2023-06-10T00:40:04.381Z,99952.72
2023-06-10T00:40:56.489Z,99947.56
2023-06-10T00:41:48.696Z,99941.03
2023-06-10T00:42:39.544Z,99948.19
2023-06-10T00:43:30.339Z,99942.91
2023-06-10T00:44:21.129Z,99947.28
2023-06-10T00:45:12.838Z,99944.94
2023-06-10T00:46:04.011Z,99947.94
2023-06-10T00:46:56.942Z,99944.47
2023-06-10T00:47:47.860Z,99947.94
2023-06-10T00:48:40.149Z,99952.84
2023-06-10T00:49:30.962Z,99949.97
2023-06-10T00:50:21.892Z,99951.91
2023-06-10T00:51:13.151Z,99951.28
2023-06-10T00:52:07.033Z,99949.00
2023-06-10T00:53:00.138Z,99948.63
2023-06-10T00:53:51.735Z,99948.53
2023-06-10T00:54:42.721Z,99946.38
2023-06-10T00:55:33.912Z,99952.00
2023-06-10T00:56:24.752Z,99954.31
2023-06-10T00:57:16.547Z,99950.22
2023-06-10T00:58:08.332Z,99959.19
2023-06-10T00:58:59.666Z,99964.25
2023-06-10T00:59:50.895Z,99968.56
2023-06-10T01:00:41.780Z,99971.00
2023-06-10T01:01:33.491Z,99960.38
2023-06-10T01:02:26.746Z,99961.88
2023-06-10T01:03:18.523Z,99969.06
2023-06-10T01:04:13.378Z,99962.00
2023-06-10T01:05:04.814Z,99967.16
2023-06-10T01:06:05.972Z,99964.94
2023-06-10T01:07:16.139Z,99966.78
2023-06-10T01:08:22.042Z,99962.22
2023-06-10T01:09:22.255Z,99962.13
2023-06-10T01:10:25.153Z,99967.91
2023-06-10T01:11:24.865Z,99961.63
2023-06-10T01:12:26.252Z,99962.53
2023-06-10T01:13:19.710Z,99960.16
2023-06-10T01:14:10.901Z,99963.25
2023-06-10T01:15:04.491Z,99965.91
2023-06-10T01:15:57.189Z,99960.66
2023-06-10T01:16:49.523Z,99962.31
2023-06-10T01:18:03.756Z,99962.13
2023-06-10T01:18:55.764Z,99955.22
2023-06-10T01:19:56.078Z,99959.56
2023-06-10T01:20:47.529Z,99959.41
2023-06-10T01:21:38.833Z,99959.22
2023-06-10T01:22:29.808Z,99956.63
2023-06-10T01:23:20.631Z,99957.81
2023-06-10T01:24:12.129Z,99970.13
2023-06-10T01:25:07.006Z,99961.06
2023-06-10T01:26:06.017Z,99972.03
2023-06-10T01:27:01.612Z,99965.06
2023-06-10T01:27:52.465Z,99968.50
2023-06-10T01:29:09.575Z,99969.66
2023-06-10T01:30:09.586Z,99969.56
2023-06-10T01:31:19.403Z,99964.81
2023-06-10T01:32:22.830Z,99965.06
2023-06-10T01:33:19.745Z,99959.94
2023-06-10T01:34:14.883Z,99968.97
2023-06-10T01:35:09.477Z,99958.09
2023-06-10T01:36:04.575Z,99966.44
2023-06-10T01:36:57.628Z,99970.78
2023-06-10T01:37:51.053Z,99966.81
2023-06-10T01:38:45.174Z,99963.41
2023-06-10T01:39:36.691Z,99968.84
2023-06-10T01:40:27.934Z,99968.66
2023-06-10T01:41:22.375Z,99958.00
2023-06-10T01:42:13.458Z,99957.38
2023-06-10T01:43:04.671Z,99959.28
2023-06-10T01:43:56.391Z,99960.03
2023-06-10T01:44:47.571Z,99959.09
2023-06-10T01:45:38.428Z,99965.06
2023-06-10T01:46:29.559Z,99956.81
2023-06-10T01:47:20.786Z,99959.91
2023-06-10T01:48:12.057Z,99966.66
2023-06-10T01:49:02.820Z,99964.19
2023-06-10T01:49:53.687Z,99969.47
2023-06-10T01:50:45.106Z,99972.53
2023-06-10T01:51:35.865Z,99962.31
2023-06-10T01:52:27.102Z,99969.75
2023-06-10T01:53:19.016Z,99959.00
2023-06-10T01:54:11.456Z,99962.25
2023-06-10T01:55:02.092Z,99963.78
2023-06-10T01:55:52.989Z,99964.25
2023-06-10T01:56:43.796Z,99975.63
2023-06-10T01:57:35.705Z,99956.72
2023-06-10T01:58:27.654Z,99968.53
2023-06-10T01:59:18.597Z,99972.06
2023-06-10T02:00:11.207Z,99970.69
2023-06-10T02:01:09.767Z,99965.72
2023-06-10T02:02:01.698Z,99972.41
2023-06-10T02:02:52.534Z,99978.56
2023-06-10T02:03:43.358Z,99984.97
2023-06-10T02:04:33.963Z,99979.72
2023-06-10T02:05:26.662Z,99983.09
2023-06-10T02:06:17.513Z,99982.00
2023-06-10T02:07:08.391Z,99987.31
2023-06-10T02:07:59.251Z,99990.75
2023-06-10T02:08:50.346Z,99984.03
2023-06-10T02:09:41.098Z,99980.63
2023-06-10T02:10:32.165Z,99980.50
2023-06-10T02:11:23.172Z,99984.91
2023-06-10T02:12:16.587Z,99984.59
2023-06-10T02:13:09.303Z,99976.09
2023-06-10T02:14:00.334Z,99984.34
2023-06-10T02:14:51.796Z,99994.31
2023-06-10T02:15:43.034Z,99988.78
2023-06-10T02:16:33.941Z,99982.34
2023-06-10T02:17:24.905Z,99988.69
2023-06-10T02:18:16.043Z,99992.88
2023-06-10T02:19:07.673Z,99994.34
2023-06-10T02:20:00.819Z,99988.56
2023-06-10T02:20:51.871Z,99991.69
2023-06-10T02:21:42.809Z,99985.25
2023-06-10T02:22:34.710Z,99997.75
2023-06-10T02:23:25.554Z,99992.13
2023-06-10T02:24:16.571Z,99999.34
2023-06-10T02:25:08.660Z,99990.22
2023-06-10T02:25:59.375Z,99994.22
2023-06-10T02:26:50.405Z,99988.59
2023-06-10T02:27:41.482Z,99999.75
2023-06-10T02:28:33.208Z,99993.63
2023-06-10T02:29:23.837Z,99993.47
2023-06-10T02:30:15.452Z,99994.88
2023-06-10T02:31:06.363Z,99991.91
2023-06-10T02:31:57.523Z,99991.09
2023-06-10T02:32:48.927Z,99985.25
2023-06-10T02:33:41.667Z,99997.06
2023-06-10T02:34:33.401Z,99996.22
2023-06-10T02:35:25.380Z,100000.72
2023-06-10T02:36:17.928Z,99999.72
2023-06-10T02:37:08.643Z,99998.69
2023-06-10T02:37:59.794Z,100000.72
2023-06-10T02:38:51.366Z,100006.03
2023-06-10T02:39:42.743Z,100002.72
2023-06-10T02:40:35.930Z,100001.34
2023-06-10T02:41:27.399Z,100003.19
2023-06-10T02:42:19.286Z,100005.00
2023-06-10T02:43:10.726Z,99999.22
2023-06-10T02:44:01.918Z,100001.38
2023-06-10T02:44:52.868Z,100001.81
2023-06-10T02:45:58.657Z,100006.03
2023-06-10T02:46:49.473Z,100002.53
2023-06-10T02:48:04.597Z,100011.50
2023-06-10T02:48:56.625Z,100008.34
2023-06-10T02:49:49.514Z,100018.69
2023-06-10T02:50:41.332Z,100018.84
2023-06-10T02:51:40.792Z,100021.84
2023-06-10T02:52:32.634Z,100022.22
2023-06-10T02:53:24.103Z,100022.56
2023-06-10T02:54:20.838Z,100021.59
2023-06-10T02:55:12.343Z,100022.78
2023-06-10T02:56:06.992Z,100021.09
2023-06-10T02:56:57.702Z,100021.47
2023-06-10T02:57:51.604Z,100014.84
2023-06-10T02:58:44.013Z,100020.31
2023-06-10T02:59:37.663Z,100021.84
2023-06-10T03:00:29.711Z,100023.19
2023-06-10T03:01:21.069Z,100019.88
2023-06-10T03:02:29.639Z,100020.72
2023-06-10T03:03:23.533Z,100021.69
2023-06-10T03:04:30.223Z,100023.53
2023-06-10T03:05:27.208Z,100020.06
2023-06-10T03:06:20.428Z,100023.53
2023-06-10T03:07:13.630Z,100018.88
2023-06-10T03:08:04.909Z,100017.88
2023-06-10T03:08:58.354Z,100019.53
2023-06-10T03:09:49.290Z,100017.72
2023-06-10T03:10:40.135Z,100022.31
2023-06-10T03:11:32.073Z,100029.63
2023-06-10T03:12:23.489Z,100020.84
2023-06-10T03:13:15.566Z,100027.53
2023-06-10T03:14:06.411Z,100020.84
2023-06-10T03:14:57.654Z,100019.19
2023-06-10T03:15:48.949Z,100024.66
2023-06-10T03:16:43.728Z,100024.00
2023-06-10T03:17:34.871Z,100021.34
2023-06-10T03:18:29.561Z,100019.72
2023-06-10T03:19:22.220Z,100022.22
2023-06-10T03:20:16.776Z,100021.69
2023-06-10T03:21:09.846Z,100026.34
2023-06-10T03:22:11.740Z,100015.41
2023-06-10T03:23:07.560Z,100013.63
2023-06-10T03:23:59.129Z,100017.75
2023-06-10T03:24:52.275Z,100025.06
2023-06-10T03:25:43.967Z,100022.56
2023-06-10T03:26:39.163Z,100021.69
2023-06-10T03:27:32.452Z,100025.19
2023-06-10T03:28:25.672Z,100022.06
2023-06-10T03:29:16.980Z,100023.69
2023-06-10T03:30:09.862Z,100029.66
2023-06-10T03:31:02.143Z,100033.66
2023-06-10T03:31:56.113Z,100026.66
2023-06-10T03:32:47.826Z,100032.31
2023-06-10T03:33:40.779Z,100033.16
2023-06-10T03:34:31.657Z,100028.50
2023-06-10T03:35:23.379Z,100031.97
2023-06-10T03:36:14.290Z,100033.25
2023-06-10T03:37:05.329Z,100043.84
2023-06-10T03:37:56.718Z,100040.72
2023-06-10T03:38:48.027Z,100039.13
2023-06-10T03:39:38.782Z,100037.34
2023-06-10T03:40:32.483Z,100032.25
2023-06-10T03:41:23.899Z,100033.84
2023-06-10T03:42:15.971Z,100026.50
2023-06-10T03:43:06.753Z,100024.00
2023-06-10T03:43:57.652Z,100027.66
2023-06-10T03:44:48.473Z,100035.34
2023-06-10T03:45:39.379Z,100034.44
2023-06-10T03:46:30.522Z,100034.25
2023-06-10T03:47:21.596Z,100043.38
2023-06-10T03:48:13.238Z,100050.44
2023-06-10T03:49:10.447Z,100035.44
2023-06-10T03:50:02.509Z,100045.72
2023-06-10T03:50:53.805Z,100044.91
2023-06-10T03:51:46.524Z,100041.16
2023-06-10T03:52:39.301Z,100046.31
2023-06-10T03:53:30.522Z,100047.66
2023-06-10T03:54:21.750Z,100046.56
2023-06-10T03:55:14.660Z,100044.16
2023-06-10T03:56:08.892Z,100050.22
2023-06-10T03:56:59.727Z,100060.53
2023-06-10T03:57:51.175Z,100056.53
2023-06-10T03:58:44.677Z,100058.06
2023-06-10T03:59:53.955Z,100049.97
2023-06-10T04:00:46.565Z,100050.03
2023-06-10T04:01:38.518Z,100058.28
2023-06-10T04:02:29.710Z,100059.81
2023-06-10T04:03:22.411Z,100054.41
2023-06-10T04:04:17.926Z,100060.28
2023-06-10T04:05:09.977Z,100060.09
2023-06-10T04:06:01.202Z,100059.69
2023-06-10T04:06:52.426Z,100062.66
2023-06-10T04:07:47.317Z,100067.06
2023-06-10T04:08:38.919Z,100067.50
2023-06-10T04:09:29.719Z,100063.53
2023-06-10T04:10:21.568Z,100058.69
2023-06-10T04:11:12.363Z,100055.03
2023-06-10T04:12:03.832Z,100062.25
2023-06-10T04:12:55.041Z,100067.34
2023-06-10T04:13:47.893Z,100067.22
2023-06-10T04:14:39.002Z,100070.66
2023-06-10T04:15:33.900Z,100073.03
2023-06-10T04:16:29.642Z,100070.22
2023-06-10T04:17:21.329Z,100065.38
2023-06-10T04:18:12.708Z,100072.91
2023-06-10T04:19:03.967Z,100067.88
2023-06-10T04:19:55.878Z,100076.22
2023-06-10T04:20:47.062Z,100071.59
2023-06-10T04:21:38.419Z,100074.34
2023-06-10T04:22:29.295Z,100068.09
2023-06-10T04:23:20.046Z,100068.25
2023-06-10T04:24:11.326Z,100072.13
2023-06-10T04:25:02.095Z,100073.19
2023-06-10T04:25:52.977Z,100071.53
2023-06-10T04:26:44.201Z,100071.78
2023-06-10T04:27:34.889Z,100069.41
2023-06-10T04:28:28.069Z,100071.25
2023-06-10T04:29:18.971Z,100065.28
2023-06-10T04:30:10.221Z,100066.97
2023-06-10T04:31:02.890Z,100070.69
2023-06-10T04:31:54.017Z,100063.78
2023-06-10T04:32:45.194Z,100072.81
2023-06-10T04:33:39.824Z,100072.75
2023-06-10T04:34:31.282Z,100064.75
2023-06-10T04:35:22.694Z,100068.00
2023-06-10T04:36:13.694Z,100067.75
2023-06-10T04:37:05.243Z,100068.22
2023-06-10T04:37:56.196Z,100064.31
2023-06-10T04:38:47.818Z,100061.91
2023-06-10T04:39:40.866Z,100067.28
2023-06-10T04:40:32.956Z,100072.75
2023-06-10T04:41:26.969Z,100071.50
2023-06-10T04:42:18.651Z,100075.03
2023-06-10T04:43:09.776Z,100078.06
2023-06-10T04:44:01.390Z,100079.63
2023-06-10T04:44:53.309Z,100081.03
2023-06-10T04:45:46.861Z,100078.53
2023-06-10T04:46:37.895Z,100064.28
2023-06-10T04:47:29.420Z,100066.06
2023-06-10T04:48:20.225Z,100068.47
2023-06-10T04:49:12.261Z,100081.97
2023-06-10T04:50:04.531Z,100072.31
2023-06-10T04:50:55.689Z,100071.97
2023-06-10T04:51:46.591Z,100074.94
2023-06-10T04:52:37.300Z,100072.88
2023-06-10T04:53:29.772Z,100074.88
2023-06-10T04:54:20.543Z,100071.63
2023-06-10T04:55:12.147Z,100075.38
2023-06-10T04:56:03.310Z,100077.25
2023-06-10T04:56:55.521Z,100077.25
2023-06-10T04:57:46.395Z,100073.59
2023-06-10T04:58:37.091Z,100071.63
2023-06-10T04:59:27.945Z,100075.31
2023-06-10T05:00:19.413Z,100075.50
2023-06-10T05:01:10.199Z,100077.97
2023-06-10T05:02:01.194Z,100080.78
2023-06-10T05:02:54.630Z,100084.56
2023-06-10T05:03:45.794Z,100076.03
2023-06-10T05:04:37.402Z,100072.34
2023-06-10T05:05:28.474Z,100071.16
2023-06-10T05:06:19.465Z,100069.97
2023-06-10T05:07:10.551Z,100075.03
2023-06-10T05:08:01.393Z,100080.34
2023-06-10T05:08:52.423Z,100084.81
2023-06-10T05:09:43.309Z,100072.59
2023-06-10T05:10:35.261Z,100071.78
2023-06-10T05:11:26.319Z,100080.56
2023-06-10T05:12:17.415Z,100072.81
2023-06-10T05:13:08.119Z,100082.81
2023-06-10T05:13:59.007Z,100083.94
2023-06-10T05:14:49.826Z,100082.06
2023-06-10T05:15:41.510Z,100072.22
2023-06-10T05:16:32.550Z,100083.47
2023-06-10T05:17:24.076Z,100083.13
2023-06-10T05:18:15.011Z,100084.56
2023-06-10T05:19:08.259Z,100089.69
2023-06-10T05:19:59.580Z,100084.28
2023-06-10T05:20:50.560Z,100087.78
2023-06-10T05:21:41.427Z,100093.19
2023-06-10T05:22:32.232Z,100095.63
2023-06-10T05:23:23.264Z,100091.28
2023-06-10T05:24:13.921Z,100083.81
2023-06-10T05:25:04.930Z,100080.44
2023-06-10T05:25:56.082Z,100099.41
2023-06-10T05:26:46.923Z,100089.47
2023-06-10T05:27:39.101Z,100095.19
2023-06-10T05:28:29.882Z,100082.41
2023-06-10T05:29:20.898Z,100084.72
2023-06-10T05:30:12.480Z,100087.47
2023-06-10T05:31:03.959Z,100080.91
2023-06-10T05:31:54.883Z,100087.84
2023-06-10T05:32:46.242Z,100083.97
2023-06-10T05:33:36.826Z,100092.41
2023-06-10T05:34:27.662Z,100086.81
2023-06-10T05:35:18.602Z,100085.09
2023-06-10T05:36:11.821Z,100075.78
2023-06-10T05:37:03.187Z,100089.03
2023-06-10T05:37:54.218Z,100086.34
2023-06-10T05:38:45.094Z,100085.34
2023-06-10T05:39:38.648Z,100087.75
2023-06-10T05:40:29.380Z,100085.34
2023-06-10T05:41:20.286Z,100087.59
2023-06-10T05:42:11.479Z,100083.09
2023-06-10T05:43:02.497Z,100085.31
2023-06-10T05:43:53.154Z,100084.31
2023-06-10T05:44:44.022Z,100094.66
2023-06-10T05:45:34.898Z,100087.16
2023-06-10T05:46:25.758Z,100090.09
2023-06-10T05:47:16.306Z,100090.97
2023-06-10T05:48:07.201Z,100090.88
2023-06-10T05:48:58.111Z,100092.47
2023-06-10T05:49:50.953Z,100088.44
2023-06-10T05:50:43.609Z,100090.94
2023-06-10T05:51:34.852Z,100094.28
2023-06-10T05:52:25.549Z,100087.03
2023-06-10T05:53:16.706Z,100088.06
2023-06-10T05:54:07.747Z,100094.75
2023-06-10T05:54:58.714Z,100090.88
2023-06-10T05:55:49.898Z,100087.19
2023-06-10T05:56:40.827Z,100090.88
2023-06-10T05:57:31.720Z,100087.78
2023-06-10T05:58:22.522Z,100086.97
2023-06-10T05:59:13.304Z,100099.28
2023-06-10T06:00:05.483Z,100095.81
2023-06-10T06:01:03.511Z,100083.13
2023-06-10T06:01:54.283Z,100094.69
2023-06-10T06:02:45.184Z,100089.13
2023-06-10T06:03:36.313Z,100095.25
2023-06-10T06:04:27.352Z,100095.19
2023-06-10T06:05:18.127Z,100095.22
2023-06-10T06:06:08.961Z,100093.28
2023-06-10T06:06:59.785Z,100106.03
2023-06-10T06:07:50.501Z,100096.78
2023-06-10T06:08:41.378Z,100098.56
2023-06-10T06:09:32.163Z,100098.91
2023-06-10T06:10:22.890Z,100108.53
2023-06-10T06:11:14.734Z,100106.59
2023-06-10T06:12:07.939Z,100107.00
2023-06-10T06:12:58.745Z,100109.66
2023-06-10T06:13:52.338Z,100104.63
2023-06-10T06:14:45.850Z,100099.97
2023-06-10T06:15:36.833Z,100101.06
2023-06-10T06:16:27.825Z,100105.44
2023-06-10T06:17:18.672Z,100104.22
2023-06-10T06:18:09.479Z,100102.75
2023-06-10T06:19:00.253Z,100103.38
2023-06-10T06:19:51.219Z,100103.34
2023-06-10T06:20:42.254Z,100102.94
2023-06-10T06:21:32.943Z,100096.09
2023-06-10T06:22:23.955Z,100099.06
2023-06-10T06:23:14.787Z,100097.94
2023-06-10T06:24:06.244Z,100097.19
2023-06-10T06:24:57.306Z,100099.25
2023-06-10T06:25:48.284Z,100101.91
2023-06-10T06:26:39.195Z,100102.47
2023-06-10T06:27:30.026Z,100100.53
2023-06-10T06:28:22.119Z,100104.28
2023-06-10T06:29:13.211Z,100101.63
2023-06-10T06:30:04.482Z,100101.28
2023-06-10T06:30:59.052Z,100098.81
2023-06-10T06:31:50.363Z,100100.50
2023-06-10T06:32:41.206Z,100100.91
2023-06-10T06:33:32.038Z,100095.94
2023-06-10T06:34:22.808Z,100086.59
2023-06-10T06:35:13.778Z,100092.19
2023-06-10T06:36:04.873Z,100095.53
2023-06-10T06:36:55.904Z,100089.34
2023-06-10T06:37:47.648Z,100098.84
2023-06-10T06:38:43.987Z,100100.78
2023-06-10T06:39:35.104Z,100100.72
2023-06-10T06:40:25.882Z,100099.78
2023-06-10T06:41:16.909Z,100103.88
2023-06-10T06:42:08.265Z,100099.59
2023-06-10T06:43:19.651Z,100109.78
2023-06-10T06:44:21.313Z,100101.47
2023-06-10T06:45:17.551Z,100104.06
2023-06-10T06:46:08.347Z,100107.31
2023-06-10T06:46:59.152Z,100103.09
2023-06-10T06:47:49.999Z,100107.81
2023-06-10T06:48:40.813Z,100104.34
2023-06-10T06:49:31.868Z,100107.88
2023-06-10T06:50:23.049Z,100103.13
2023-06-10T06:51:14.290Z,100107.25
2023-06-10T06:52:05.562Z,100102.25
2023-06-10T06:52:56.418Z,100102.84
2023-06-10T06:53:47.494Z,100113.84
2023-06-10T06:54:38.639Z,100099.63
2023-06-10T06:55:29.448Z,100100.38
2023-06-10T06:56:20.437Z,100106.06
2023-06-10T06:57:11.768Z,100108.56
2023-06-10T06:58:05.101Z,100104.28
2023-06-10T06:58:58.237Z,100113.91
2023-06-10T06:59:49.364Z,100108.78
2023-06-10T07:00:40.184Z,100105.56
2023-06-10T07:01:31.317Z,100106.84
2023-06-10T07:02:22.302Z,100105.22
2023-06-10T07:03:13.202Z,100103.00
2023-06-10T07:04:04.116Z,100101.53
2023-06-10T07:04:57.154Z,100104.47
2023-06-10T07:05:48.416Z,100105.75
2023-06-10T07:06:39.237Z,100101.44
2023-06-10T07:07:30.169Z,100098.34
2023-06-10T07:08:21.220Z,100102.91
2023-06-10T07:09:12.439Z,100105.41
2023-06-10T07:10:03.669Z,100102.50
2023-06-10T07:10:55.264Z,100106.19
2023-06-10T07:11:46.495Z,100106.69
2023-06-10T07:12:37.240Z,100104.78
2023-06-10T07:13:28.076Z,100102.06
2023-06-10T07:14:18.950Z,100102.41
2023-06-10T07:15:10.427Z,100098.06
2023-06-10T07:16:01.432Z,100100.59
2023-06-10T07:16:52.087Z,100105.78
2023-06-10T07:17:43.328Z,100102.91
2023-06-10T07:18:35.048Z,100105.78
2023-06-10T07:19:25.864Z,100109.16
2023-06-10T07:20:16.869Z,100112.69
2023-06-10T07:21:07.773Z,100107.72
2023-06-10T07:21:58.506Z,100110.91
2023-06-10T07:22:49.327Z,100106.56
2023-06-10T07:23:43.302Z,100103.31
2023-06-10T07:24:34.023Z,100103.53
2023-06-10T07:25:24.771Z,100101.28
2023-06-10T07:26:15.707Z,100107.72
2023-06-10T07:27:08.231Z,100102.84
2023-06-10T07:27:58.974Z,100106.97
2023-06-10T07:28:49.911Z,100117.03
2023-06-10T07:29:41.109Z,100111.09
2023-06-10T07:30:31.852Z,100113.16
2023-06-10T07:31:22.673Z,100111.63
2023-06-10T07:32:13.455Z,100112.53
2023-06-10T07:33:04.418Z,100113.78
2023-06-10T07:33:55.696Z,100108.97
2023-06-10T07:34:46.522Z,100108.59
2023-06-10T07:35:37.341Z,100111.97
2023-06-10T07:36:29.607Z,100113.03
2023-06-10T07:37:20.881Z,100107.88
2023-06-10T07:38:11.795Z,100104.81
2023-06-10T07:39:02.823Z,100105.84
2023-06-10T07:39:53.915Z,100105.22
2023-06-10T07:40:44.749Z,100114.94
2023-06-10T07:41:36.291Z,100103.19
2023-06-10T07:42:27.342Z,100098.56
2023-06-10T07:43:18.302Z,100107.28
2023-06-10T07:44:09.125Z,100108.34
2023-06-10T07:44:59.743Z,100110.38
2023-06-10T07:45:50.741Z,100115.13
2023-06-10T07:46:41.565Z,100111.00
2023-06-10T07:47:34.013Z,100109.97
2023-06-10T07:48:25.120Z,100104.16
2023-06-10T07:49:16.121Z,100112.41
2023-06-10T07:50:07.528Z,100115.53
2023-06-10T07:50:58.435Z,100112.84
2023-06-10T07:51:49.357Z,100127.72
2023-06-10T07:52:40.327Z,100115.34
2023-06-10T07:53:31.039Z,100119.34
2023-06-10T07:54:21.854Z,100116.66
2023-06-10T07:55:12.922Z,100123.09
2023-06-10T07:56:03.553Z,100111.16
2023-06-10T07:56:54.466Z,100123.25
2023-06-10T07:57:45.166Z,100112.59
2023-06-10T07:58:38.215Z,100122.13
2023-06-10T07:59:29.082Z,100111.00
2023-06-10T08:00:20.658Z,100118.22
2023-06-10T08:01:11.870Z,100115.94
2023-06-10T08:02:02.742Z,100108.72
2023-06-10T08:02:53.726Z,100123.34
2023-06-10T08:03:45.269Z,100113.88
2023-06-10T08:04:36.897Z,100114.94
2023-06-10T08:05:27.961Z,100121.72
2023-06-10T08:06:18.893Z,100117.16
2023-06-10T08:07:09.724Z,100118.41
2023-06-10T08:08:04.039Z,100116.97
2023-06-10T08:08:54.860Z,100103.69
2023-06-10T08:09:45.745Z,100104.50
2023-06-10T08:10:36.770Z,100097.88
2023-06-10T08:11:29.434Z,100099.97
2023-06-10T08:12:21.378Z,100100.25
2023-06-10T08:13:12.339Z,100095.50
2023-06-10T08:14:03.316Z,100103.13
2023-06-10T08:14:54.877Z,100105.13
2023-06-10T08:15:46.268Z,100114.09
2023-06-10T08:16:37.378Z,100105.13
2023-06-10T08:17:28.782Z,100099.25
2023-06-10T08:18:19.439Z,100104.63
2023-06-10T08:19:10.491Z,100107.00
2023-06-10T08:20:02.354Z,100107.78
2023-06-10T08:20:53.169Z,100100.84
2023-06-10T08:21:44.341Z,100105.13
2023-06-10T08:22:35.146Z,100103.28
2023-06-10T08:23:26.000Z,100100.97
2023-06-10T08:24:19.016Z,100099.66
2023-06-10T08:25:10.849Z,100101.56
2023-06-10T08:26:02.276Z,100099.44
2023-06-10T08:26:53.060Z,100098.84
2023-06-10T08:27:44.305Z,100104.31
2023-06-10T08:28:35.085Z,100097.34
2023-06-10T08:29:26.592Z,100107.91
2023-06-10T08:30:17.638Z,100102.03
2023-06-10T08:31:08.432Z,100114.00
2023-06-10T08:31:59.363Z,100111.06
2023-06-10T08:32:50.166Z,100102.56
2023-06-10T08:33:40.760Z,100106.66
2023-06-10T08:34:34.845Z,100111.41
2023-06-10T08:35:25.745Z,100107.38
2023-06-10T08:36:16.911Z,100110.81
2023-06-10T08:37:08.303Z,100110.50
2023-06-10T08:37:59.385Z,100101.47
2023-06-10T08:38:50.243Z,100104.69
2023-06-10T08:39:40.906Z,100112.75
2023-06-10T08:40:31.970Z,100106.06
2023-06-10T08:41:25.830Z,100117.66
2023-06-10T08:42:37.584Z,100112.91
2023-06-10T08:43:31.330Z,100116.34
2023-06-10T08:44:31.972Z,100109.78
2023-06-10T08:45:24.661Z,100109.53
2023-06-10T08:46:16.168Z,100102.09
2023-06-10T08:47:19.079Z,100108.16
2023-06-10T08:48:12.063Z,100116.06
2023-06-10T08:49:08.589Z,100106.88
2023-06-10T08:50:05.007Z,100106.88
2023-06-10T08:50:58.332Z,100116.31
2023-06-10T08:51:52.393Z,100103.47
2023-06-10T08:52:45.135Z,100103.34
2023-06-10T08:53:38.798Z,100104.72
2023-06-10T08:54:33.358Z,100113.75
2023-06-10T08:55:33.038Z,100105.75
2023-06-10T08:56:27.060Z,100105.06
2023-06-10T08:57:21.293Z,100112.78
2023-06-10T08:58:14.001Z,100100.59
2023-06-10T08:59:05.030Z,100121.16
2023-06-10T08:59:57.884Z,100110.34
2023-06-10T09:00:48.908Z,100112.63
2023-06-10T09:01:40.137Z,100104.63
2023-06-10T09:02:32.601Z,100102.84
2023-06-10T09:03:25.461Z,100114.88
2023-06-10T09:04:19.260Z,100105.75
2023-06-10T09:05:11.045Z,100111.13
2023-06-10T09:06:05.743Z,100106.13
2023-06-10T09:06:57.370Z,100107.63
2023-06-10T09:07:52.428Z,100106.28
2023-06-10T09:08:44.061Z,100105.91
2023-06-10T09:09:36.525Z,100103.13
2023-06-10T09:10:28.078Z,100110.09
2023-06-10T09:11:19.225Z,100112.63
2023-06-10T09:12:10.571Z,100102.34
2023-06-10T09:13:01.529Z,100102.38
2023-06-10T09:13:52.475Z,100102.84
2023-06-10T09:14:43.958Z,100093.41
2023-06-10T09:15:35.095Z,100106.75
2023-06-10T09:16:26.655Z,100105.06
2023-06-10T09:17:18.262Z,100104.34
2023-06-10T09:18:09.572Z,100100.59
2023-06-10T09:19:00.578Z,100100.00
2023-06-10T09:19:54.836Z,100095.28
2023-06-10T09:20:46.759Z,100101.28
2023-06-10T09:21:37.461Z,100097.22
2023-06-10T09:22:29.315Z,100096.25
2023-06-10T09:23:19.986Z,100089.97
2023-06-10T09:24:10.775Z,100091.19
2023-06-10T09:25:10.285Z,100098.34
2023-06-10T09:26:01.316Z,100095.78
2023-06-10T09:27:03.049Z,100091.19
2023-06-10T09:27:57.791Z,100084.06
2023-06-10T09:28:51.749Z,100087.94
2023-06-10T09:29:53.549Z,100092.69
2023-06-10T09:30:44.587Z,100093.81
2023-06-10T09:31:36.847Z,100082.78
2023-06-10T09:32:27.957Z,100078.94
2023-06-10T09:33:18.898Z,100080.56
2023-06-10T09:34:13.938Z,100082.53
2023-06-10T09:35:10.575Z,100081.25
2023-06-10T09:36:03.497Z,100084.22
2023-06-10T09:36:54.443Z,100080.78
2023-06-10T09:37:45.575Z,100075.97
2023-06-10T09:38:36.929Z,100080.56
2023-06-10T09:39:27.946Z,100084.41
2023-06-10T09:40:19.152Z,100081.66
2023-06-10T09:41:10.027Z,100084.78
2023-06-10T09:42:00.965Z,100085.22
2023-06-10T09:43:00.242Z,100077.09
2023-06-10T09:43:51.323Z,100081.91
2023-06-10T09:44:42.277Z,100083.25
2023-06-10T09:45:34.170Z,100081.91
2023-06-10T09:46:25.407Z,100079.28
2023-06-10T09:47:24.140Z,100079.88
2023-06-10T09:48:15.026Z,100095.19
2023-06-10T09:49:05.800Z,100082.19
2023-06-10T09:49:56.587Z,100081.22
2023-06-10T09:50:47.719Z,100085.47
2023-06-10T09:51:38.736Z,100088.13
2023-06-10T09:52:30.622Z,100084.78
2023-06-10T09:53:22.082Z,100087.00
2023-06-10T09:54:12.927Z,100085.81
2023-06-10T09:55:04.514Z,100085.25
2023-06-10T09:55:55.502Z,100079.69
2023-06-10T09:56:47.849Z,100082.69
2023-06-10T09:57:40.210Z,100087.63
2023-06-10T09:58:43.322Z,100081.41
2023-06-10T09:59:34.804Z,100073.72
2023-06-10T10:00:27.073Z,100077.38
2023-06-10T10:01:18.134Z,100072.22